Skip Navigation LinksHome page > Weather > Current weather Skip Navigation Links

Current Weather

San Francisco International, San Francisco

For information only: do not use for flight planning or navigation.
Latest weather
Observation time Saturday, October 19, 2019 2:56 AM PDT
Local time Saturday, October 19, 2019 3:19 AM PDT
Flight conditions Visual Meteorological Conditions
Winds
Wind direction West (270°)
Wind speed 6 mph
Visibility 10 mi.
Sky condition
Ceiling unlimited
Cloud layer few clouds 600 ft.
Temperature 55°F
Dewpoint 48°F
Altimeter 30.07 in.Hg
Derived measurements
Relative humidity 77%
Density altitude -256 ft.
Sea-level pressure 30.07 in.Hg
Remarks
Automated weather observing station with precipitation discriminator.
METAR KSFO 190956Z 27005KT 10SM FEW006 13/09 A3007 RMK AO2 SLP182 T01280089

Settings

Location code

InnerDrive.Weather 4.0.6770.0 Release CLR 4.0.30319.42000
Copyright ©2018 Inner Drive Technology. All rights reserved. Portions Copyright ©1986-2018 David Braverman.

Find weather

Site navigation


Skip Navigation Links

Place info

Page info

PayPal - The safer, easier way to pay online!

Return home.

Copyright ©2019 Inner Drive Technology. Purveyors of fine, hand-crafted computer software. Page printed 2019-10-19T10:19:18 UTC.